Time;durP1;ratioP1;P1;durP2;ratioP2;P2;SDS_P1;SDS_P2;PMS_P1;PMS_P2;Temp;Humidity;BMP_temperature;BMP_pressure;BME280_temperature;BME280_humidity;BME280_pressure;Samples;Min_cycle;Max_cycle;Signal;HPM_P1;HPM_P2
2021/07/25 00:04:08;;;;;;;6.40;3.28;;;22.00;76.30;;;;;;10101069;28;20112;-59
2021/07/25 00:08:59;;;;;;;4.18;2.90;;;21.90;76.90;;;;;;10093168;28;20135;-58
2021/07/25 00:13:52;;;;;;;9.70;3.70;;;21.80;76.90;;;;;;10094109;28;20029;-59
2021/07/25 00:18:43;;;;;;;4.88;3.55;;;22.00;76.80;;;;;;10093765;28;20083;-58
2021/07/25 00:23:34;;;;;;;5.30;3.95;;;21.80;77.20;;;;;;10093842;28;20029;-58
2021/07/25 00:28:32;;;;;;;6.47;3.83;;;22.00;76.90;;;;;;10093289;28;20486;-58
2021/07/25 00:33:23;;;;;;;3.55;2.90;;;22.00;76.90;;;;;;10093702;28;20029;-58
2021/07/25 00:38:13;;;;;;;4.20;3.13;;;21.80;77.60;;;;;;10093269;28;20456;-57
2021/07/25 00:43:04;;;;;;;4.88;2.92;;;21.70;77.90;;;;;;10093014;28;20534;-58
2021/07/25 00:47:55;;;;;;;5.10;3.25;;;21.80;77.60;;;;;;10093042;28;20037;-59
2021/07/25 00:52:45;;;;;;;4.03;3.25;;;21.80;77.60;;;;;;10093388;28;20024;-64
2021/07/25 00:57:36;;;;;;;4.13;3.03;;;21.80;77.70;;;;;;10091091;28;20059;-59
2021/07/25 01:02:35;;;;;;;5.88;3.60;;;21.90;77.90;;;;;;10093637;28;20514;-59
2021/07/25 01:07:57;;;;;;;5.03;3.70;;;21.80;78.00;;;;;;10098439;28;20041;-57
2021/07/25 01:12:47;;;;;;;4.90;2.67;;;21.90;78.30;;;;;;10094844;28;20118;-59
2021/07/25 01:17:38;;;;;;;6.70;3.35;;;21.90;78.20;;;;;;10100167;28;20056;-58
2021/07/25 01:22:33;;;;;;;6.13;3.55;;;21.80;78.40;;;;;;10100604;28;20104;-58
2021/07/25 01:27:47;;;;;;;5.47;3.30;;;21.70;78.60;;;;;;10099113;28;20748;-58
2021/07/25 01:32:40;;;;;;;4.95;3.60;;;21.70;78.90;;;;;;10085187;28;20021;-63
2021/07/25 01:37:33;;;;;;;6.00;3.42;;;21.70;78.90;;;;;;10096483;28;20354;-59
2021/07/25 01:42:31;;;;;;;5.13;3.15;;;21.70;79.00;;;;;;10099701;28;20116;-58
2021/07/25 01:47:21;;;;;;;5.55;4.10;;;21.50;79.60;;;;;;10099352;28;20328;-59
2021/07/25 01:52:12;;;;;;;5.57;3.55;;;21.50;79.70;;;;;;10098901;28;20033;-58
2021/07/25 01:57:03;;;;;;;7.85;4.35;;;21.60;79.70;;;;;;10098593;28;20128;-59
2021/07/25 02:01:53;;;;;;;6.20;4.32;;;21.60;79.70;;;;;;10097395;28;20017;-60
2021/07/25 02:06:44;;;;;;;7.68;4.32;;;21.40;81.00;;;;;;10096215;28;20112;-60
2021/07/25 02:11:37;;;;;;;8.25;4.15;;;21.40;80.40;;;;;;10098846;28;20523;-58
2021/07/25 02:16:27;;;;;;;7.03;4.25;;;21.30;80.60;;;;;;10097788;28;20033;-57
2021/07/25 02:21:18;;;;;;;6.63;4.05;;;21.20;80.90;;;;;;10098713;28;20488;-58
2021/07/25 02:26:09;;;;;;;8.93;5.05;;;21.30;80.80;;;;;;10098092;28;20045;-57
2021/07/25 02:30:59;;;;;;;11.10;5.38;;;21.30;80.80;;;;;;10097676;28;20035;-58
2021/07/25 02:35:50;;;;;;;6.10;4.03;;;21.30;81.10;;;;;;10097366;28;20074;-57
2021/07/25 02:40:40;;;;;;;7.70;4.47;;;21.00;81.50;;;;;;10097640;28;20032;-58
2021/07/25 02:45:31;;;;;;;6.97;4.55;;;21.00;81.90;;;;;;10097469;28;20033;-57
2021/07/25 02:50:22;;;;;;;8.48;5.50;;;21.00;82.00;;;;;;10097549;28;20033;-58
2021/07/25 02:55:12;;;;;;;8.98;5.10;;;21.10;82.00;;;;;;10097292;28;20094;-59
2021/07/25 03:00:04;;;;;;;7.50;5.38;;;21.10;81.90;;;;;;10096170;28;20574;-58
2021/07/25 03:04:55;;;;;;;6.78;4.60;;;21.10;81.90;;;;;;10096419;28;20047;-57
2021/07/25 03:09:46;;;;;;;5.90;4.40;;;21.10;82.00;;;;;;10095149;28;20037;-58
2021/07/25 03:14:36;;;;;;;7.68;4.90;;;21.00;82.20;;;;;;10096611;28;20224;-57
2021/07/25 03:19:27;;;;;;;8.00;4.78;;;21.00;82.40;;;;;;10096418;28;20025;-58
2021/07/25 03:24:18;;;;;;;7.47;4.75;;;21.00;82.50;;;;;;10095975;28;20063;-58
2021/07/25 03:29:08;;;;;;;7.22;4.55;;;21.00;82.50;;;;;;10095047;28;20033;-58
2021/07/25 03:34:00;;;;;;;9.15;4.68;;;20.90;82.80;;;;;;10095526;28;20048;-58
2021/07/25 03:38:51;;;;;;;6.95;4.93;;;20.80;83.00;;;;;;10095030;28;20032;-58
2021/07/25 03:43:41;;;;;;;8.60;4.78;;;20.80;83.10;;;;;;10095704;28;20055;-59
2021/07/25 03:48:32;;;;;;;7.18;4.65;;;20.80;83.00;;;;;;10095539;28;20051;-57
2021/07/25 03:53:23;;;;;;;6.90;4.75;;;20.70;83.20;;;;;;10094963;28;20021;-58
2021/07/25 03:58:14;;;;;;;7.05;3.85;;;20.70;83.40;;;;;;10095429;28;20392;-59
2021/07/25 04:03:04;;;;;;;7.88;4.57;;;20.70;83.50;;;;;;10095957;28;20028;-59
2021/07/25 04:07:55;;;;;;;7.20;4.55;;;20.70;83.80;;;;;;10083169;28;20033;-59
2021/07/25 04:12:46;;;;;;;6.75;4.72;;;20.60;83.60;;;;;;10094874;28;20032;-59
2021/07/25 04:17:36;;;;;;;8.15;4.55;;;20.70;83.60;;;;;;10093912;28;20048;-60
2021/07/25 04:22:32;;;;;;;8.80;5.88;;;20.60;83.90;;;;;;10093278;28;20035;-59
2021/07/25 04:27:23;;;;;;;6.97;4.38;;;20.60;84.40;;;;;;10093714;28;20094;-59
2021/07/25 04:32:14;;;;;;;10.07;5.30;;;20.60;84.20;;;;;;10093513;28;20522;-62
2021/07/25 04:37:10;;;;;;;7.80;4.57;;;20.60;84.10;;;;;;10093173;28;20040;-58
2021/07/25 04:42:01;;;;;;;7.82;4.90;;;20.60;84.30;;;;;;10092884;28;20446;-59
2021/07/25 04:46:54;;;;;;;7.78;5.45;;;20.60;84.30;;;;;;10091609;28;20040;-61
2021/07/25 04:51:46;;;;;;;9.40;5.30;;;20.60;84.30;;;;;;10093555;28;20526;-60
2021/07/25 04:57:02;;;;;;;10.23;5.22;;;20.60;84.60;;;;;;10093174;28;20086;-59
2021/07/25 05:01:58;;;;;;;7.85;4.85;;;20.60;84.70;;;;;;10093205;28;20255;-64
2021/07/25 05:06:49;;;;;;;10.18;5.22;;;20.40;84.90;;;;;;10077995;28;20124;-59
2021/07/25 05:11:45;;;;;;;8.32;5.43;;;20.40;85.10;;;;;;10092227;28;20516;-59
2021/07/25 05:16:46;;;;;;;8.80;5.68;;;20.40;85.20;;;;;;10092698;28;20086;-59
2021/07/25 05:21:43;;;;;;;8.02;4.97;;;20.40;85.20;;;;;;10093939;28;20074;-59
2021/07/25 05:26:36;;;;;;;8.20;5.88;;;20.60;85.00;;;;;;10092278;28;20118;-59
2021/07/25 05:31:32;;;;;;;5.82;4.55;;;20.80;84.60;;;;;;10093202;28;20475;-59
2021/07/25 05:36:22;;;;;;;5.57;4.65;;;20.90;84.60;;;;;;10091853;28;20120;-59
2021/07/25 05:41:13;;;;;;;8.98;5.50;;;21.00;84.50;;;;;;10093311;28;20033;-58
2021/07/25 05:46:04;;;;;;;6.65;4.25;;;21.10;84.30;;;;;;10092344;28;20327;-59
2021/07/25 05:50:54;;;;;;;9.07;4.88;;;21.10;84.60;;;;;;10093938;28;20111;-59
2021/07/25 05:55:45;;;;;;;9.25;4.65;;;21.20;84.40;;;;;;10098987;28;20056;-58
2021/07/25 06:00:35;;;;;;;6.38;3.85;;;21.30;84.60;;;;;;10099017;28;20488;-59
2021/07/25 06:05:29;;;;;;;6.18;4.00;;;21.40;84.60;;;;;;10088886;28;20021;-58
2021/07/25 06:10:21;;;;;;;6.30;4.35;;;21.50;84.30;;;;;;10138149;28;20040;-59
2021/07/25 06:15:13;;;;;;;7.10;3.60;;;21.70;84.10;;;;;;10109159;28;20044;-59
2021/07/25 06:20:05;;;;;;;6.20;3.08;;;21.80;83.90;;;;;;10098092;28;20515;-59
2021/07/25 06:24:55;;;;;;;5.40;3.75;;;21.90;83.60;;;;;;10098737;28;20048;-58
2021/07/25 06:29:46;;;;;;;6.70;3.67;;;22.10;83.50;;;;;;10098621;28;20025;-60
2021/07/25 06:34:36;;;;;;;6.30;3.60;;;22.10;83.10;;;;;;10097983;28;20551;-60
2021/07/25 06:39:27;;;;;;;6.00;3.50;;;22.20;83.00;;;;;;10097773;28;20029;-59
2021/07/25 06:44:18;;;;;;;5.28;3.55;;;21.80;83.60;;;;;;10097363;28;20036;-59
2021/07/25 06:49:08;;;;;;;6.00;4.35;;;21.70;83.90;;;;;;10097090;28;20047;-59
2021/07/25 06:53:59;;;;;;;7.00;3.15;;;22.00;83.90;;;;;;10097706;28;20123;-59
2021/07/25 06:58:50;;;;;;;6.25;3.65;;;21.90;83.10;;;;;;10096946;28;20032;-60
2021/07/25 07:03:41;;;;;;;6.43;3.85;;;21.80;83.50;;;;;;10091660;28;20276;-58
2021/07/25 07:08:31;;;;;;;5.35;3.75;;;21.80;83.40;;;;;;10092098;28;20098;-60
2021/07/25 07:13:22;;;;;;;5.30;3.90;;;21.80;83.20;;;;;;10096289;28;20025;-59
2021/07/25 07:18:13;;;;;;;4.72;3.40;;;21.80;83.20;;;;;;10095191;28;20036;-59
2021/07/25 07:23:08;;;;;;;6.45;3.28;;;22.30;82.30;;;;;;10095669;28;20025;-58
2021/07/25 07:28:01;;;;;;;4.45;3.05;;;22.30;81.90;;;;;;10094206;28;20057;-59
2021/07/25 07:32:52;;;;;;;5.60;3.28;;;22.30;81.70;;;;;;10094063;28;20025;-58
2021/07/25 07:37:42;;;;;;;5.45;3.55;;;22.30;82.00;;;;;;10094395;28;20044;-58
2021/07/25 07:42:33;;;;;;;5.03;3.70;;;22.40;81.20;;;;;;10095071;28;20031;-60
2021/07/25 07:47:24;;;;;;;3.97;2.80;;;22.20;81.80;;;;;;10094615;28;20055;-61
2021/07/25 07:52:15;;;;;;;4.95;3.38;;;22.10;81.90;;;;;;10094945;28;20024;-59
2021/07/25 07:57:05;;;;;;;8.30;4.25;;;22.00;81.90;;;;;;10094199;28;20048;-58
2021/07/25 08:01:57;;;;;;;6.70;3.65;;;22.20;81.60;;;;;;10094474;28;20086;-58
2021/07/25 08:06:48;;;;;;;5.28;3.60;;;22.40;81.60;;;;;;10084311;28;20036;-58
2021/07/25 08:11:43;;;;;;;4.85;3.50;;;22.60;80.60;;;;;;10094529;28;20048;-58
2021/07/25 08:16:34;;;;;;;;;;;22.60;80.50;;;;;;10093626;28;20514;-60
2021/07/25 08:21:24;;;;;;;5.95;3.25;;;22.70;80.20;;;;;;10094630;28;19939;-58
2021/07/25 08:26:15;;;;;;;5.30;3.05;;;22.70;80.30;;;;;;10094314;28;20048;-59
2021/07/25 08:31:05;;;;;;;6.65;3.28;;;22.80;80.30;;;;;;10094348;28;20021;-58
2021/07/25 08:35:56;;;;;;;4.30;2.80;;;23.00;79.70;;;;;;10093823;28;20051;-59
2021/07/25 08:40:59;;;;;;;4.63;2.75;;;23.30;78.90;;;;;;10092412;28;20593;-60
2021/07/25 08:45:51;;;;;;;4.30;3.00;;;23.60;78.20;;;;;;10092307;28;20029;-58
2021/07/25 08:51:03;;;;;;;4.30;2.53;;;23.80;77.70;;;;;;10093750;28;20033;-59
2021/07/25 08:55:54;;;;;;;7.43;3.28;;;23.90;77.00;;;;;;10091975;28;20561;-58
2021/07/25 09:00:49;;;;;;;5.28;3.25;;;24.00;76.70;;;;;;10093613;28;20321;-59
2021/07/25 09:05:42;;;;;;;4.13;2.95;;;24.10;76.50;;;;;;10093204;28;20487;-59
2021/07/25 09:10:32;;;;;;;3.55;2.58;;;24.20;76.40;;;;;;10091797;28;20052;-59
2021/07/25 09:15:29;;;;;;;5.43;2.53;;;24.60;75.10;;;;;;10092877;28;20052;-59
2021/07/25 09:20:26;;;;;;;3.10;2.55;;;24.60;74.30;;;;;;10092837;28;20029;-58
2021/07/25 09:25:20;;;;;;;4.75;3.03;;;24.90;73.40;;;;;;10110949;28;20130;-58
2021/07/25 09:30:20;;;;;;;3.50;2.30;;;25.00;72.50;;;;;;10102902;28;20035;-59
2021/07/25 09:35:31;;;;;;;5.38;3.03;;;24.90;72.00;;;;;;10100095;28;20039;-59
2021/07/25 09:40:28;;;;;;;3.35;2.35;;;25.30;70.50;;;;;;10099911;28;20035;-58
2021/07/25 09:45:20;;;;;;;3.42;2.50;;;25.60;70.40;;;;;;10098837;28;20546;-59
2021/07/25 09:50:14;;;;;;;4.60;2.55;;;25.80;69.90;;;;;;10100166;28;20056;-59
2021/07/25 09:55:06;;;;;;;3.92;1.90;;;25.70;69.80;;;;;;10097033;28;20033;-59
2021/07/25 10:00:10;;;;;;;3.13;1.88;;;26.00;68.60;;;;;;10099401;28;20094;-58
2021/07/25 10:05:15;;;;;;;3.97;2.33;;;26.30;67.50;;;;;;10093179;28;20025;-58
2021/07/25 10:10:09;;;;;;;3.10;1.73;;;26.30;66.00;;;;;;10097432;28;20053;-59
2021/07/25 10:15:01;;;;;;;4.07;2.87;;;26.40;66.00;;;;;;10096043;28;20523;-58
2021/07/25 10:19:53;;;;;;;6.72;3.92;;;26.30;65.80;;;;;;10098957;28;20279;-58
2021/07/25 10:24:45;;;;;;;5.60;4.30;;;26.30;65.20;;;;;;10097758;28;20403;-59
2021/07/25 10:29:40;;;;;;;4.88;2.83;;;26.20;64.90;;;;;;10098575;28;20032;-58
2021/07/25 10:34:33;;;;;;;4.82;2.13;;;26.10;64.30;;;;;;10097196;28;20175;-58
2021/07/25 10:39:27;;;;;;;2.90;2.00;;;26.20;63.70;;;;;;10097051;28;20287;-58
2021/07/25 10:44:18;;;;;;;2.67;2.13;;;26.40;63.20;;;;;;10097758;28;20442;-58
2021/07/25 10:49:13;;;;;;;4.47;1.70;;;26.60;62.40;;;;;;10097038;28;20045;-58
2021/07/25 10:54:22;;;;;;;3.17;2.10;;;26.60;61.60;;;;;;10096700;28;20025;-57
2021/07/25 10:59:38;;;;;;;3.85;1.73;;;26.70;60.10;;;;;;10096894;28;20132;-59
2021/07/25 11:04:47;;;;;;;2.35;1.70;;;26.60;58.40;;;;;;10097193;28;20806;-59
2021/07/25 11:09:58;;;;;;;1.83;1.48;;;26.80;59.30;;;;;;10096827;28;20537;-59
2021/07/25 11:14:59;;;;;;;2.85;1.95;;;26.80;59.10;;;;;;10096350;28;20562;-59
2021/07/25 11:19:50;;;;;;;1.80;1.33;;;27.10;58.30;;;;;;10096972;28;20040;-61
2021/07/25 11:24:47;;;;;;;2.60;1.95;;;27.20;58.50;;;;;;10094218;28;20492;-59
2021/07/25 11:29:38;;;;;;;3.80;2.10;;;27.30;58.20;;;;;;10096126;28;20372;-59
2021/07/25 11:34:36;;;;;;;4.00;1.27;;;27.40;58.10;;;;;;10095139;28;20033;-59
2021/07/25 11:39:27;;;;;;;3.55;1.60;;;27.60;57.30;;;;;;10096018;28;20033;-59
2021/07/25 11:44:26;;;;;;;2.85;1.80;;;27.30;56.80;;;;;;10095019;28;20116;-58
2021/07/25 11:49:26;;;;;;;5.75;3.40;;;27.30;56.10;;;;;;10095249;28;20064;-59
2021/07/25 11:54:31;;;;;;;3.92;2.30;;;27.20;56.40;;;;;;10095101;28;20321;-58
2021/07/25 11:59:22;;;;;;;5.38;2.88;;;27.20;56.50;;;;;;10095409;28;20629;-60
2021/07/25 12:04:26;;;;;;;6.28;2.75;;;26.90;57.10;;;;;;10093319;28;20448;-59
2021/07/25 12:09:17;;;;;;;3.30;2.13;;;27.10;57.00;;;;;;10094751;28;20052;-58
2021/07/25 12:14:08;;;;;;;3.42;2.17;;;27.60;56.50;;;;;;10094783;28;20533;-59
2021/07/25 12:19:12;;;;;;;4.22;1.98;;;28.20;55.90;;;;;;10094464;28;20426;-59
2021/07/25 12:24:02;;;;;;;;;;;28.60;55.00;;;;;;10094812;28;20098;-59
2021/07/25 12:28:53;;;;;;;2.67;2.08;;;28.60;54.70;;;;;;10094169;28;19912;-59
2021/07/25 12:33:43;;;;;;;3.70;1.65;;;28.70;55.10;;;;;;10093771;28;20032;-59
2021/07/25 12:38:34;;;;;;;4.50;2.40;;;28.40;55.20;;;;;;10109820;28;20043;-59
2021/07/25 12:43:27;;;;;;;2.75;1.73;;;28.50;55.50;;;;;;10117579;28;20027;-58
2021/07/25 12:48:20;;;;;;;3.08;1.77;;;28.90;55.10;;;;;;10094019;28;20032;-58
2021/07/25 12:53:18;;;;;;;3.72;2.45;;;28.20;55.40;;;;;;10093625;28;20104;-59
2021/07/25 12:58:09;;;;;;;3.25;1.88;;;27.70;55.50;;;;;;10092679;28;20515;-59
2021/07/25 13:08:09;;;;;;;3.55;1.92;;;26.90;55.60;;;;;;10061261;28;20492;-58
2021/07/25 13:12:59;;;;;;;2.35;1.50;;;26.70;55.50;;;;;;10061514;28;20099;-58
2021/07/25 13:17:50;;;;;;;4.07;1.83;;;26.60;55.30;;;;;;10099419;28;20037;-58
2021/07/25 13:22:41;;;;;;;4.05;2.00;;;26.50;55.20;;;;;;10101630;28;20439;-57
2021/07/25 13:27:32;;;;;;;7.10;2.35;;;26.50;55.10;;;;;;10101372;28;20066;-58
2021/07/25 13:32:22;;;;;;;2.15;1.90;;;26.30;55.60;;;;;;10100514;28;20207;-57
2021/07/25 13:37:13;;;;;;;3.60;2.20;;;26.00;56.90;;;;;;10099867;28;20041;-58
2021/07/25 13:42:04;;;;;;;3.45;2.05;;;25.80;58.00;;;;;;10100313;28;20395;-57
2021/07/25 13:46:55;;;;;;;5.07;2.90;;;25.50;59.80;;;;;;10100193;28;20060;-56
2021/07/25 13:51:46;;;;;;;3.80;2.20;;;25.40;61.10;;;;;;10100355;28;20025;-57
2021/07/25 13:56:37;;;;;;;3.72;2.25;;;25.40;62.40;;;;;;10099633;28;20033;-58
2021/07/25 14:01:27;;;;;;;3.25;2.40;;;25.20;63.70;;;;;;10099074;28;20021;-58
2021/07/25 14:06:18;;;;;;;2.97;2.33;;;25.20;65.00;;;;;;10094288;28;20033;-58
2021/07/25 14:11:12;;;;;;;4.43;2.58;;;27.60;62.10;;;;;;10098497;28;20041;-58
2021/07/25 14:16:03;;;;;;;3.90;2.38;;;29.80;58.90;;;;;;10098650;28;20510;-57
2021/07/25 14:20:54;;;;;;;3.63;2.35;;;31.80;57.70;;;;;;10099244;28;20036;-59
2021/07/25 14:25:45;;;;;;;3.10;2.38;;;33.10;55.10;;;;;;10098335;28;20029;-58
2021/07/25 14:30:36;;;;;;;3.07;2.40;;;32.40;54.90;;;;;;10098383;28;20565;-59
2021/07/25 14:35:27;;;;;;;4.53;2.30;;;29.70;58.90;;;;;;10097923;28;20045;-58
2021/07/25 14:40:18;;;;;;;3.83;2.78;;;28.00;61.40;;;;;;10097735;28;20091;-58
2021/07/25 14:45:09;;;;;;;2.95;1.92;;;27.60;61.40;;;;;;10097522;28;20400;-58
2021/07/25 14:50:01;;;;;;;2.25;1.42;;;29.50;58.10;;;;;;10098154;28;20396;-59
2021/07/25 14:54:51;;;;;;;2.17;1.70;;;32.20;53.20;;;;;;10097487;28;20123;-59
2021/07/25 14:59:42;;;;;;;1.90;1.70;;;33.20;50.70;;;;;;10097809;28;20355;-59
2021/07/25 15:04:33;;;;;;;1.40;1.27;;;33.40;49.60;;;;;;10085107;28;20033;-59
2021/07/25 15:09:24;;;;;;;2.35;1.52;;;33.70;48.20;;;;;;10079160;28;20419;-60
2021/07/25 15:14:15;;;;;;;1.25;1.15;;;34.30;46.40;;;;;;10096471;28;20373;-59
2021/07/25 15:19:06;;;;;;;1.80;1.50;;;34.00;45.80;;;;;;10097370;28;20384;-59
2021/07/25 15:23:57;;;;;;;1.48;1.27;;;33.90;45.20;;;;;;10095797;28;20017;-57
2021/07/25 15:28:47;;;;;;;2.33;1.60;;;34.30;44.70;;;;;;10095779;28;20040;-60
2021/07/25 15:33:38;;;;;;;2.33;1.73;;;35.20;43.30;;;;;;10096497;28;20028;-60
2021/07/25 15:38:28;;;;;;;1.50;1.40;;;35.50;42.70;;;;;;10094826;28;20037;-58
2021/07/25 15:43:19;;;;;;;1.53;1.40;;;35.30;42.50;;;;;;10095815;28;20056;-58
2021/07/25 15:48:10;;;;;;;1.63;1.40;;;35.60;42.30;;;;;;10095044;28;20112;-57
2021/07/25 15:53:00;;;;;;;1.53;1.27;;;35.40;41.80;;;;;;10095159;28;20525;-58
2021/07/25 15:57:51;;;;;;;4.03;1.60;;;35.60;41.70;;;;;;10094462;28;20491;-58
2021/07/25 16:02:42;;;;;;;2.35;1.55;;;33.80;43.30;;;;;;10095110;28;20387;-58
2021/07/25 16:07:32;;;;;;;1.65;1.50;;;32.40;44.40;;;;;;10095265;28;20044;-60
2021/07/25 16:12:23;;;;;;;2.50;1.25;;;33.40;43.40;;;;;;10095044;28;20045;-60
2021/07/25 16:17:14;;;;;;;2.42;1.35;;;35.30;40.50;;;;;;10093943;28;20095;-58
2021/07/25 16:22:05;;;;;;;2.07;1.27;;;36.50;39.30;;;;;;10094484;28;20032;-60
2021/07/25 16:26:55;;;;;;;2.65;1.33;;;36.20;38.60;;;;;;10093991;28;20271;-60
2021/07/25 16:31:46;;;;;;;2.45;1.88;;;32.40;43.80;;;;;;10094348;28;20391;-61
2021/07/25 16:36:37;;;;;;;4.20;1.65;;;30.70;45.40;;;;;;10091306;28;20041;-57
2021/07/25 16:41:27;;;;;;;2.22;1.70;;;29.80;46.50;;;;;;10093831;28;20051;-58
2021/07/25 16:46:18;;;;;;;3.08;1.80;;;30.60;45.20;;;;;;10093817;28;20036;-60
2021/07/25 16:51:10;;;;;;;3.35;2.22;;;31.10;44.40;;;;;;10093367;28;20029;-59
2021/07/25 16:56:00;;;;;;;2.30;1.67;;;29.60;46.70;;;;;;10091988;28;20040;-60
2021/07/25 17:00:51;;;;;;;2.72;1.60;;;28.60;48.00;;;;;;10091940;28;20029;-59
2021/07/25 17:05:41;;;;;;;3.13;2.28;;;28.10;48.70;;;;;;10081365;28;20478;-57
2021/07/25 17:10:36;;;;;;;3.22;1.63;;;27.80;49.00;;;;;;10093243;28;20044;-59
2021/07/25 17:15:28;;;;;;;2.38;1.90;;;27.50;49.30;;;;;;10092470;28;20037;-58
2021/07/25 17:20:19;;;;;;;3.67;1.88;;;27.50;49.50;;;;;;10092712;28;20033;-58
2021/07/25 17:25:10;;;;;;;2.20;1.60;;;27.20;50.00;;;;;;10092370;28;20037;-58
2021/07/25 17:30:02;;;;;;;2.47;1.50;;;27.10;50.40;;;;;;10093228;28;20567;-59
2021/07/25 17:34:52;;;;;;;4.22;1.60;;;27.50;50.40;;;;;;10092084;28;20041;-59
2021/07/25 17:39:43;;;;;;;2.75;1.70;;;27.50;50.70;;;;;;10092878;28;20408;-57
2021/07/25 17:44:35;;;;;;;3.75;2.63;;;27.30;51.40;;;;;;10092152;28;20033;-58
2021/07/25 17:49:28;;;;;;;2.50;1.80;;;26.90;52.80;;;;;;10098440;28;20597;-59
2021/07/25 17:54:19;;;;;;;4.68;1.83;;;26.80;53.70;;;;;;10099723;28;20468;-60
2021/07/25 17:59:13;;;;;;;4.72;2.38;;;26.70;54.20;;;;;;10099724;28;20037;-59
2021/07/25 18:04:04;;;;;;;7.40;2.53;;;26.70;54.90;;;;;;10099197;28;20086;-59
2021/07/25 18:08:55;;;;;;;6.80;2.78;;;26.60;55.40;;;;;;10099108;28;20098;-58
2021/07/25 18:13:51;;;;;;;2.95;2.33;;;26.60;55.90;;;;;;10098706;28;20025;-62
2021/07/25 18:18:42;;;;;;;3.42;2.00;;;26.50;56.60;;;;;;10098756;28;20478;-60
2021/07/25 18:23:32;;;;;;;14.57;7.25;;;26.50;57.30;;;;;;10099083;28;20048;-58
2021/07/25 18:28:23;;;;;;;3.58;2.10;;;26.60;57.60;;;;;;10097145;28;20087;-58
2021/07/25 18:33:14;;;;;;;6.45;3.13;;;26.70;57.60;;;;;;10098924;28;20033;-59
2021/07/25 18:38:04;;;;;;;3.85;3.22;;;26.70;58.40;;;;;;10097238;28;20629;-57
2021/07/25 18:42:55;;;;;;;4.82;1.90;;;26.50;58.90;;;;;;10095713;28;20040;-59
2021/07/25 18:47:46;;;;;;;2.65;2.30;;;26.40;59.20;;;;;;10097790;28;20039;-57
2021/07/25 18:52:36;;;;;;;4.82;2.35;;;26.30;59.20;;;;;;10097991;28;20389;-61
2021/07/25 18:57:27;;;;;;;3.53;2.50;;;26.00;59.70;;;;;;10118038;28;20469;-61
2021/07/25 19:02:22;;;;;;;4.22;2.53;;;25.80;60.40;;;;;;10137035;28;20021;-59
2021/07/25 19:07:13;;;;;;;2.30;1.80;;;25.70;60.70;;;;;;10095119;28;20037;-58
2021/07/25 19:12:05;;;;;;;4.97;2.92;;;25.70;60.80;;;;;;10097158;28;20045;-58
2021/07/25 19:16:56;;;;;;;2.97;1.98;;;25.60;61.00;;;;;;10095912;28;20033;-62
2021/07/25 19:21:46;;;;;;;4.90;2.20;;;25.50;61.20;;;;;;10096630;28;20033;-61
2021/07/25 19:26:37;;;;;;;3.38;2.10;;;25.50;61.20;;;;;;10095900;28;20025;-59
2021/07/25 19:31:27;;;;;;;3.45;1.88;;;25.40;60.80;;;;;;10095456;28;20032;-59
2021/07/25 19:36:18;;;;;;;2.85;1.95;;;25.30;60.90;;;;;;10095056;28;20503;-60
2021/07/25 19:41:09;;;;;;;6.20;2.33;;;25.20;61.00;;;;;;10095486;28;20147;-58
2021/07/25 19:46:05;;;;;;;3.08;1.70;;;25.10;61.00;;;;;;10095288;28;20162;-58
2021/07/25 19:50:56;;;;;;;2.55;1.73;;;25.00;61.50;;;;;;10096245;28;20101;-60
2021/07/25 19:55:46;;;;;;;1.95;1.65;;;25.00;60.60;;;;;;10094752;28;20400;-61
2021/07/25 20:00:38;;;;;;;3.70;1.70;;;25.00;60.70;;;;;;10092414;28;20058;-61
2021/07/25 20:05:29;;;;;;;3.55;2.15;;;24.90;60.60;;;;;;10093153;28;20037;-57
2021/07/25 20:10:20;;;;;;;3.17;1.70;;;24.90;60.40;;;;;;10094013;28;20056;-60
2021/07/25 20:15:11;;;;;;;4.30;1.95;;;24.70;60.90;;;;;;10093661;28;20048;-58
2021/07/25 20:20:03;;;;;;;4.60;2.20;;;24.70;60.80;;;;;;10095163;28;20029;-60
2021/07/25 20:24:54;;;;;;;3.67;2.42;;;24.80;60.60;;;;;;10094413;28;20096;-59
2021/07/25 20:29:45;;;;;;;3.33;2.05;;;24.70;60.90;;;;;;10094418;28;20415;-59
2021/07/25 20:34:36;;;;;;;2.33;1.83;;;24.60;61.30;;;;;;10093558;28;20036;-59
2021/07/25 20:39:27;;;;;;;3.28;2.00;;;24.50;61.80;;;;;;10094059;28;20068;-58
2021/07/25 20:44:18;;;;;;;3.03;1.65;;;24.40;62.10;;;;;;10093794;28;20025;-60
2021/07/25 20:49:08;;;;;;;2.78;1.80;;;24.10;63.10;;;;;;10093840;28;20357;-58
2021/07/25 20:53:59;;;;;;;4.50;2.10;;;24.00;63.40;;;;;;10093861;28;20021;-57
2021/07/25 20:58:50;;;;;;;3.42;2.30;;;23.90;64.10;;;;;;10093399;28;20434;-58
2021/07/25 21:03:40;;;;;;;4.63;2.08;;;23.90;64.60;;;;;;10093161;28;20020;-59
2021/07/25 21:08:31;;;;;;;3.33;2.30;;;23.90;64.60;;;;;;10093623;28;20041;-59
2021/07/25 21:13:22;;;;;;;4.07;2.58;;;23.80;64.80;;;;;;10093563;28;20169;-59
2021/07/25 21:18:12;;;;;;;4.45;2.22;;;23.60;65.40;;;;;;10092577;28;20246;-59
2021/07/25 21:23:03;;;;;;;2.00;1.60;;;23.60;65.90;;;;;;10097008;28;20047;-60
2021/07/25 21:27:54;;;;;;;3.25;2.00;;;23.50;66.30;;;;;;10099432;28;20495;-57
2021/07/25 21:32:44;;;;;;;2.33;1.85;;;23.50;66.30;;;;;;10099333;28;20499;-59
2021/07/25 21:37:35;;;;;;;4.05;2.90;;;23.30;67.10;;;;;;10100081;28;20047;-58
2021/07/25 21:42:26;;;;;;;4.05;2.00;;;23.20;67.40;;;;;;10100309;28;20187;-60
2021/07/25 21:47:16;;;;;;;3.92;1.92;;;23.30;67.60;;;;;;10099956;28;20029;-60
2021/07/25 21:52:10;;;;;;;3.13;2.20;;;23.20;68.00;;;;;;10100317;28;20025;-58
2021/07/25 21:57:00;;;;;;;3.05;2.08;;;23.10;68.50;;;;;;10099291;28;20044;-59
2021/07/25 22:06:57;;;;;;;2.40;1.77;;;23.20;68.70;;;;;;10093296;28;20469;-57
2021/07/25 22:11:47;;;;;;;6.40;2.03;;;23.20;68.60;;;;;;10128690;28;20052;-57
2021/07/25 22:16:38;;;;;;;3.95;1.90;;;23.30;68.60;;;;;;10098359;28;20041;-58
2021/07/25 22:21:29;;;;;;;2.88;1.98;;;23.20;68.70;;;;;;10099032;28;20021;-57
2021/07/25 22:26:19;;;;;;;2.75;1.75;;;23.30;68.90;;;;;;10098610;28;20518;-57
2021/07/25 22:31:11;;;;;;;4.88;2.22;;;23.30;69.10;;;;;;10098448;28;20055;-57
2021/07/25 22:36:01;;;;;;;3.35;1.75;;;23.00;69.40;;;;;;10096687;28;20048;-57
2021/07/25 22:40:52;;;;;;;3.63;2.08;;;23.00;69.70;;;;;;10098361;28;20502;-58
2021/07/25 22:45:43;;;;;;;2.38;1.90;;;22.90;70.00;;;;;;10097768;28;20348;-58
2021/07/25 22:50:33;;;;;;;3.13;1.95;;;23.00;69.90;;;;;;10098100;28;20039;-57
2021/07/25 22:55:26;;;;;;;4.07;2.00;;;22.90;70.00;;;;;;10097153;28;20170;-58
2021/07/25 23:00:16;;;;;;;2.22;1.83;;;22.80;70.40;;;;;;10097785;28;20045;-58
2021/07/25 23:05:09;;;;;;;4.05;1.80;;;22.80;70.30;;;;;;10096950;28;20533;-57
2021/07/25 23:09:59;;;;;;;2.97;1.95;;;22.60;70.80;;;;;;10097154;28;20117;-59
2021/07/25 23:14:50;;;;;;;2.90;1.83;;;22.50;71.20;;;;;;10097072;28;20101;-58
2021/07/25 23:19:41;;;;;;;2.53;1.90;;;22.50;71.10;;;;;;10098429;28;20037;-58
2021/07/25 23:24:31;;;;;;;3.50;1.80;;;22.40;71.60;;;;;;10096293;28;20553;-58
2021/07/25 23:29:22;;;;;;;2.97;1.95;;;22.30;71.90;;;;;;10096390;28;20036;-58
2021/07/25 23:34:12;;;;;;;3.40;2.33;;;22.40;71.70;;;;;;10095834;28;20106;-57
2021/07/25 23:39:05;;;;;;;4.22;1.88;;;22.40;72.00;;;;;;10095883;28;20380;-59
2021/07/25 23:43:56;;;;;;;3.45;2.30;;;22.30;72.20;;;;;;10094554;28;20025;-58
2021/07/25 23:48:47;;;;;;;3.25;2.03;;;22.20;72.40;;;;;;10095738;28;20534;-57
2021/07/25 23:53:38;;;;;;;2.38;1.90;;;22.20;72.90;;;;;;10095758;28;20110;-58
2021/07/25 23:58:28;;;;;;;3.50;2.00;;;22.20;72.60;;;;;;10095581;28;20102;-59
